createdAt,value
2022-10-17T00:01:19.798Z,3.20
2022-10-17T00:04:06.563Z,3.42
2022-10-17T00:06:46.649Z,3.65
2022-10-17T00:09:33.529Z,4.25
2022-10-17T00:12:13.666Z,2.88
2022-10-17T00:15:00.582Z,3.40
2022-10-17T00:17:42.067Z,3.05
2022-10-17T00:20:28.515Z,4.07
2022-10-17T00:23:08.640Z,3.42
2022-10-17T00:26:04.535Z,3.45
2022-10-17T00:28:56.679Z,3.63
2022-10-17T00:31:36.521Z,3.50
2022-10-17T00:34:23.532Z,3.67
2022-10-17T00:37:03.653Z,4.05
2022-10-17T00:39:50.522Z,3.83
2022-10-17T00:42:30.879Z,3.33
2022-10-17T00:45:38.521Z,3.88
2022-10-17T00:48:22.573Z,3.47
2022-10-17T00:53:51.896Z,4.05
2022-10-17T00:56:39.488Z,3.83
2022-10-17T00:59:28.499Z,3.78
2022-10-17T01:02:11.764Z,3.25
2022-10-17T01:05:03.509Z,4.18
2022-10-17T01:07:44.909Z,3.25
2022-10-17T01:10:32.499Z,3.15
2022-10-17T01:13:31.448Z,3.58
2022-10-17T01:16:31.496Z,3.90
2022-10-17T01:19:48.929Z,3.45
2022-10-17T01:22:55.458Z,2.95
2022-10-17T01:26:03.537Z,3.28
2022-10-17T01:29:19.468Z,3.22
2022-10-17T01:32:15.494Z,3.35
2022-10-17T01:35:00.364Z,3.60
2022-10-17T01:38:19.421Z,3.38
2022-10-17T01:40:59.731Z,3.58
2022-10-17T01:43:54.429Z,4.47
2022-10-17T01:49:37.435Z,4.40
2022-10-17T01:52:35.422Z,3.10
2022-10-17T01:55:30.445Z,3.72
2022-10-17T01:58:20.794Z,3.58
2022-10-17T02:01:10.483Z,3.25
2022-10-17T02:03:59.410Z,3.30
2022-10-17T02:06:43.505Z,3.95
2022-10-17T02:09:32.437Z,3.83
2022-10-17T02:12:41.465Z,3.22
2022-10-17T02:15:57.383Z,3.88
2022-10-17T02:19:05.406Z,3.53
2022-10-17T02:22:21.395Z,3.42
2022-10-17T02:25:46.476Z,3.17
2022-10-17T02:28:45.417Z,3.08
2022-10-17T02:31:38.444Z,4.00
2022-10-17T02:34:34.372Z,3.55
2022-10-17T02:37:25.597Z,3.65
2022-10-17T02:40:08.829Z,3.20
2022-10-17T02:42:58.317Z,3.90
2022-10-17T02:45:47.439Z,3.70
2022-10-17T02:48:49.329Z,3.92
2022-10-17T02:51:59.349Z,4.38
2022-10-17T02:54:56.318Z,4.07
2022-10-17T02:58:00.351Z,3.92
2022-10-17T03:00:46.478Z,3.95
2022-10-17T03:03:35.371Z,4.07
2022-10-17T03:25:40.537Z,3.13
2022-10-17T03:28:21.963Z,3.75
2022-10-17T03:31:08.513Z,3.58
2022-10-17T03:33:56.528Z,3.65
2022-10-17T03:36:36.623Z,3.70
2022-10-17T03:39:23.477Z,3.63
2022-10-17T03:42:10.486Z,3.30
2022-10-17T03:44:50.895Z,3.45
2022-10-17T03:47:37.483Z,3.20
2022-10-17T03:50:24.523Z,4.47
2022-10-17T03:53:13.482Z,4.22
2022-10-17T03:55:54.148Z,3.28
2022-10-17T03:58:40.455Z,3.95
2022-10-17T04:01:29.529Z,4.10
2022-10-17T04:04:16.457Z,4.20
2022-10-17T04:06:56.843Z,2.92
2022-10-17T04:09:43.490Z,2.97
2022-10-17T04:12:25.810Z,2.95
2022-10-17T04:15:12.434Z,3.63
2022-10-17T04:18:01.570Z,2.80
2022-10-17T04:20:42.551Z,2.80
2022-10-17T04:23:29.445Z,3.03
2022-10-17T04:26:20.558Z,2.80
2022-10-17T04:29:07.472Z,3.20
2022-10-17T04:31:50.058Z,2.63
2022-10-17T04:34:56.431Z,2.65
2022-10-17T04:37:43.385Z,3.33
2022-10-17T04:40:32.403Z,4.85
2022-10-17T04:43:12.542Z,4.07
2022-10-17T04:45:59.413Z,3.13
2022-10-17T04:48:46.400Z,3.90
2022-10-17T04:51:33.510Z,3.33
2022-10-17T04:54:33.364Z,3.17
2022-10-17T04:57:22.389Z,3.78
2022-10-17T05:00:18.414Z,2.28
2022-10-17T05:05:53.407Z,2.80
2022-10-17T05:08:34.346Z,2.97
2022-10-17T05:11:40.352Z,2.53
2022-10-17T05:14:27.390Z,2.72
2022-10-17T05:17:14.371Z,2.88
2022-10-17T05:20:01.353Z,3.00
2022-10-17T05:22:42.543Z,3.58
2022-10-17T05:25:29.376Z,3.33
2022-10-17T05:28:16.335Z,2.35
2022-10-17T05:31:09.350Z,2.58
2022-10-17T05:33:56.346Z,2.83
2022-10-17T05:36:38.874Z,3.08
2022-10-17T05:39:27.362Z,3.50
2022-10-17T05:42:07.888Z,2.58
2022-10-17T05:44:54.343Z,3.28
2022-10-17T05:47:34.683Z,2.88
2022-10-17T05:50:23.364Z,2.92
2022-10-17T05:53:11.753Z,2.88
2022-10-17T05:56:13.296Z,2.38
2022-10-17T05:58:57.436Z,2.13
2022-10-17T06:02:20.306Z,2.50
2022-10-17T06:05:07.292Z,3.17
2022-10-17T06:07:58.234Z,2.90
2022-10-17T06:10:42.695Z,3.22
2022-10-17T06:13:30.304Z,4.30
2022-10-17T06:16:23.280Z,3.10
2022-10-17T06:19:10.288Z,2.85
2022-10-17T06:21:50.772Z,2.60
2022-10-17T06:24:39.300Z,4.82
2022-10-17T06:27:20.579Z,6.97
2022-10-17T06:30:07.267Z,8.27
2022-10-17T06:32:47.685Z,6.35
2022-10-17T06:35:35.248Z,5.18
2022-10-17T06:38:22.221Z,5.07
2022-10-17T06:41:20.377Z,5.18
2022-10-17T06:44:07.303Z,3.47
2022-10-17T06:47:08.237Z,3.40
2022-10-17T06:49:56.280Z,3.40
2022-10-17T06:52:42.375Z,3.53
2022-10-17T06:55:47.241Z,4.40
2022-10-17T06:58:49.457Z,3.03
2022-10-17T07:01:43.267Z,2.88
2022-10-17T07:04:33.193Z,3.30
2022-10-17T07:07:13.214Z,3.83
2022-10-17T07:10:00.249Z,3.33
2022-10-17T07:12:42.460Z,4.10
2022-10-17T07:15:29.227Z,3.25
2022-10-17T07:18:09.312Z,2.95
2022-10-17T07:21:01.156Z,3.08
2022-10-17T07:23:49.240Z,2.65
2022-10-17T07:26:29.564Z,2.53
2022-10-17T07:29:17.233Z,2.97
2022-10-17T07:32:12.567Z,2.88
2022-10-17T07:34:59.194Z,3.22
2022-10-17T07:37:39.744Z,2.78
2022-10-17T07:40:28.204Z,2.92
2022-10-17T07:43:08.568Z,3.20
2022-10-17T07:45:55.194Z,3.50
2022-10-17T07:48:36.605Z,2.38
2022-10-17T07:51:25.171Z,3.22
2022-10-17T07:54:06.687Z,3.63
2022-10-17T07:56:57.136Z,3.05
2022-10-17T07:59:38.402Z,2.72
2022-10-17T08:02:37.181Z,2.20
2022-10-17T08:05:17.615Z,2.85
2022-10-17T08:08:04.161Z,2.90
2022-10-17T08:10:51.181Z,2.95
2022-10-17T08:13:31.277Z,2.58
2022-10-17T08:16:20.159Z,2.85
2022-10-17T08:22:01.140Z,2.45
2022-10-17T08:24:42.874Z,2.38
2022-10-17T08:27:31.102Z,3.17
2022-10-17T08:30:18.166Z,2.80
2022-10-17T08:33:05.115Z,2.45
2022-10-17T08:35:45.202Z,2.40
2022-10-17T08:38:35.082Z,5.65
2022-10-17T08:41:34.176Z,2.72
2022-10-17T08:44:24.137Z,3.13
2022-10-17T08:47:08.255Z,2.95
2022-10-17T08:49:59.109Z,3.20
2022-10-17T08:52:48.294Z,3.80
2022-10-17T08:55:47.147Z,2.72
2022-10-17T08:58:41.188Z,3.20
2022-10-17T09:01:34.111Z,2.50
2022-10-17T09:04:42.198Z,2.28
2022-10-17T09:07:48.099Z,2.03
2022-10-17T09:11:10.189Z,3.05
2022-10-17T09:14:20.086Z,3.30
2022-10-17T09:17:31.350Z,2.75
2022-10-17T09:20:24.628Z,2.60
2022-10-17T09:23:25.103Z,1.95
2022-10-17T09:26:19.142Z,2.67
2022-10-17T09:29:01.007Z,2.97
2022-10-17T09:31:59.069Z,2.60
2022-10-17T09:34:39.548Z,2.10
2022-10-17T09:37:31.087Z,2.47
2022-10-17T09:40:21.532Z,2.53
2022-10-17T09:43:08.018Z,2.35
2022-10-17T09:46:11.102Z,2.60
2022-10-17T09:49:28.012Z,2.63
2022-10-17T09:52:24.022Z,2.90
2022-10-17T09:55:24.147Z,2.75
2022-10-17T09:58:14.150Z,2.58
2022-10-17T10:00:55.419Z,2.40
2022-10-17T10:03:42.036Z,2.35
2022-10-17T10:06:27.127Z,2.72
2022-10-17T10:09:29.010Z,2.90
2022-10-17T10:12:32.452Z,2.90
2022-10-17T10:15:44.038Z,3.13
2022-10-17T10:18:33.250Z,2.45
2022-10-17T10:21:37.175Z,2.55
2022-10-17T10:24:20.407Z,2.95
2022-10-17T10:27:10.023Z,2.97
2022-10-17T10:30:03.986Z,4.15
2022-10-17T10:32:53.996Z,2.85
2022-10-17T10:35:43.149Z,2.65
2022-10-17T10:38:31.020Z,2.65
2022-10-17T10:41:14.142Z,2.55
2022-10-17T10:44:03.050Z,2.22
2022-10-17T10:46:50.006Z,2.13
2022-10-17T10:49:32.375Z,2.42
2022-10-17T10:52:22.086Z,2.63
2022-10-17T10:55:17.813Z,2.60
2022-10-17T10:58:09.954Z,2.08
2022-10-17T11:00:58.143Z,2.15
2022-10-17T11:03:50.195Z,1.80
2022-10-17T11:06:43.191Z,2.72
2022-10-17T11:09:51.188Z,2.55
2022-10-17T11:15:53.946Z,2.40
2022-10-17T11:18:51.174Z,1.83
2022-10-17T11:21:43.952Z,2.35
2022-10-17T11:24:34.949Z,1.90
2022-10-17T11:27:16.496Z,1.80
2022-10-17T11:30:03.991Z,2.88
2022-10-17T11:33:01.904Z,2.20
2022-10-17T11:35:53.954Z,1.73
2022-10-17T11:38:52.165Z,1.58
2022-10-17T11:41:49.933Z,1.73
2022-10-17T11:44:39.044Z,1.70
2022-10-17T11:47:34.908Z,1.67
2022-10-17T11:54:05.014Z,2.45
2022-10-17T11:56:55.063Z,2.17
2022-10-17T12:00:11.907Z,2.33
2022-10-17T12:03:27.132Z,2.17
2022-10-17T12:06:20.357Z,2.63
2022-10-17T12:09:09.941Z,2.20
2022-10-17T12:12:05.920Z,2.38
2022-10-17T12:14:57.886Z,2.20
2022-10-17T12:17:47.909Z,2.55
2022-10-17T12:20:34.861Z,2.05
2022-10-17T12:23:15.453Z,2.50
2022-10-17T12:26:11.891Z,2.25
2022-10-17T12:28:52.859Z,2.17
2022-10-17T12:31:40.837Z,3.92
2022-10-17T12:34:31.123Z,2.53
2022-10-17T12:37:11.079Z,2.00
2022-10-17T12:39:57.933Z,2.33
2022-10-17T12:42:46.873Z,1.98
2022-10-17T12:45:53.330Z,3.33
2022-10-17T12:48:51.839Z,2.45
2022-10-17T12:52:16.961Z,2.03
2022-10-17T12:55:19.925Z,2.60
2022-10-17T12:58:08.412Z,2.45
2022-10-17T13:01:18.843Z,2.30
2022-10-17T13:03:56.486Z,2.53
2022-10-17T13:06:46.845Z,2.50
2022-10-17T13:09:35.836Z,2.75
2022-10-17T13:12:28.658Z,2.28
2022-10-17T13:15:24.862Z,2.53
2022-10-17T13:18:13.821Z,2.10
2022-10-17T13:21:12.851Z,1.90
2022-10-17T13:23:54.513Z,2.20
2022-10-17T13:26:40.868Z,2.75
2022-10-17T13:29:31.819Z,2.35
2022-10-17T13:32:18.761Z,2.03
2022-10-17T13:35:36.559Z,2.10
2022-10-17T13:38:27.978Z,2.20
2022-10-17T13:41:34.771Z,2.35
2022-10-17T13:44:34.755Z,2.60
2022-10-17T13:47:28.898Z,2.05
2022-10-17T13:50:44.125Z,2.38
2022-10-17T13:53:43.899Z,2.30
2022-10-17T13:56:32.767Z,2.38
2022-10-17T13:59:38.789Z,2.70
2022-10-17T14:02:43.757Z,2.88
2022-10-17T14:05:32.803Z,2.85
2022-10-17T14:08:22.902Z,2.38
2022-10-17T14:11:09.761Z,2.55
2022-10-17T14:13:52.774Z,2.75
2022-10-17T14:16:55.780Z,2.28
2022-10-17T14:19:38.054Z,2.60
2022-10-17T14:23:04.410Z,2.28
2022-10-17T14:26:03.788Z,2.40
2022-10-17T14:28:47.166Z,2.95
2022-10-17T14:31:45.792Z,2.70
2022-10-17T14:34:31.259Z,2.30
2022-10-17T14:37:54.759Z,3.35
2022-10-17T14:40:41.727Z,2.97
2022-10-17T14:43:26.822Z,3.53
2022-10-17T14:46:13.738Z,2.70
2022-10-17T14:48:59.808Z,3.08
2022-10-17T14:51:56.917Z,2.50
2022-10-17T14:54:53.684Z,2.70
2022-10-17T14:57:34.463Z,2.85
2022-10-17T15:00:20.703Z,2.70
2022-10-17T15:03:07.738Z,2.95
2022-10-17T15:05:54.705Z,4.13
2022-10-17T15:08:35.112Z,3.25
2022-10-17T15:27:37.732Z,4.43
2022-10-17T15:30:32.687Z,3.88
2022-10-17T15:33:19.688Z,4.30
2022-10-17T15:36:06.823Z,3.97
2022-10-17T15:38:46.743Z,4.28
2022-10-17T15:41:35.704Z,4.18
2022-10-17T15:44:15.836Z,3.95
2022-10-17T15:47:03.707Z,4.93
2022-10-17T15:49:43.766Z,3.60
2022-10-17T15:52:30.710Z,4.82
2022-10-17T15:55:17.664Z,3.80
2022-10-17T15:57:58.058Z,4.30
2022-10-17T16:00:44.714Z,4.00
2022-10-17T16:03:31.669Z,4.18
2022-10-17T16:06:14.146Z,4.38
2022-10-17T16:09:00.680Z,4.70
2022-10-17T16:11:53.677Z,4.40
2022-10-17T16:14:34.043Z,5.25
2022-10-17T16:17:22.684Z,4.32
2022-10-17T16:20:03.215Z,4.53
2022-10-17T16:22:49.684Z,4.60
2022-10-17T16:25:45.627Z,5.78
2022-10-17T16:28:32.698Z,4.05
2022-10-17T16:31:42.664Z,4.43
2022-10-17T16:34:29.640Z,4.00
2022-10-17T16:37:09.827Z,3.97
2022-10-17T16:39:58.591Z,3.78
2022-10-17T16:42:38.761Z,4.18
2022-10-17T16:45:28.646Z,4.10
2022-10-17T16:48:08.710Z,4.72
2022-10-17T16:51:02.613Z,4.38
2022-10-17T16:53:45.892Z,4.20
2022-10-17T16:56:38.631Z,5.20
2022-10-17T16:59:19.045Z,3.97
2022-10-17T17:02:05.591Z,4.15
2022-10-17T17:04:45.962Z,4.53
2022-10-17T17:07:26.716Z,6.07
2022-10-17T17:10:13.592Z,4.15
2022-10-17T17:12:53.961Z,4.45
2022-10-17T17:15:40.631Z,4.50
2022-10-17T17:18:27.596Z,4.85
2022-10-17T17:21:09.679Z,4.47
2022-10-17T17:23:56.556Z,4.88
2022-10-17T17:26:43.693Z,4.90
2022-10-17T17:29:23.564Z,6.38
2022-10-17T17:32:04.108Z,5.13
2022-10-17T17:34:51.562Z,4.97
2022-10-17T17:37:38.562Z,4.88
2022-10-17T17:40:18.702Z,4.45
2022-10-17T17:45:47.711Z,4.63
2022-10-17T17:48:34.526Z,5.18
2022-10-17T17:51:28.487Z,4.65
2022-10-17T17:54:17.551Z,5.13
2022-10-17T17:57:04.551Z,10.63
2022-10-17T17:59:45.666Z,4.82
2022-10-17T18:02:32.736Z,6.88
2022-10-17T18:05:13.644Z,5.82
2022-10-17T18:08:00.550Z,18.60
2022-10-17T18:10:40.599Z,11.25
2022-10-17T18:13:27.559Z,13.43
2022-10-17T18:16:17.456Z,21.85
2022-10-17T18:19:05.952Z,10.52
2022-10-17T18:21:53.514Z,7.10
2022-10-17T18:24:33.905Z,5.47
2022-10-17T18:27:22.536Z,6.43
2022-10-17T18:30:04.227Z,7.35
2022-10-17T18:32:50.517Z,8.48
2022-10-17T18:35:37.483Z,6.28
2022-10-17T18:38:17.608Z,8.27
2022-10-17T18:41:19.477Z,11.18
2022-10-17T18:44:09.456Z,36.33
2022-10-17T18:46:58.644Z,59.60
2022-10-17T18:49:49.468Z,71.78
2022-10-17T18:52:36.549Z,34.80
2022-10-17T18:55:24.482Z,43.80
2022-10-17T18:58:11.503Z,28.08
2022-10-17T19:00:59.454Z,10.80
2022-10-17T19:03:39.813Z,11.05
2022-10-17T19:06:29.479Z,7.30
2022-10-17T19:09:18.438Z,7.07
2022-10-17T19:11:58.635Z,8.98
2022-10-17T19:14:45.442Z,9.43
2022-10-17T19:17:32.792Z,9.50
2022-10-17T19:20:12.780Z,15.40
2022-10-17T19:22:59.417Z,11.02
2022-10-17T19:25:46.406Z,8.55
2022-10-17T19:28:26.745Z,8.80
2022-10-17T19:31:16.906Z,7.50
2022-10-17T19:34:04.453Z,14.45
2022-10-17T19:36:45.241Z,11.35
2022-10-17T19:39:34.420Z,9.32
2022-10-17T19:42:14.865Z,8.32
2022-10-17T19:45:01.410Z,7.97
2022-10-17T19:47:41.805Z,7.75
2022-10-17T19:50:28.484Z,7.43
2022-10-17T19:53:08.762Z,7.35
2022-10-17T19:55:55.415Z,6.85
2022-10-17T19:58:43.743Z,7.38
2022-10-17T20:01:33.439Z,8.50
2022-10-17T20:04:20.386Z,11.65
2022-10-17T20:07:00.524Z,7.40
2022-10-17T20:09:47.418Z,6.88
2022-10-17T20:12:27.701Z,7.70
2022-10-17T20:15:14.341Z,6.85
2022-10-17T20:17:54.446Z,6.35
2022-10-17T20:20:42.350Z,6.95
2022-10-17T20:23:22.561Z,6.93
2022-10-17T20:26:37.084Z,6.00
2022-10-17T20:29:15.517Z,5.80
2022-10-17T20:32:03.335Z,7.38
2022-10-17T20:34:50.361Z,6.47
2022-10-17T20:37:42.691Z,6.95
2022-10-17T20:40:34.719Z,6.53
2022-10-17T20:43:17.377Z,6.55
2022-10-17T20:46:04.614Z,7.57
2022-10-17T20:48:56.349Z,6.18
2022-10-17T20:51:50.351Z,7.68
2022-10-17T20:54:30.729Z,6.95
2022-10-17T20:57:18.294Z,6.38
2022-10-17T21:00:05.314Z,6.20
2022-10-17T21:02:45.510Z,6.47
2022-10-17T21:05:32.323Z,5.80
2022-10-17T21:08:13.420Z,7.13
2022-10-17T21:11:00.297Z,6.63
2022-10-17T21:13:47.307Z,6.93
2022-10-17T21:16:35.313Z,5.88
2022-10-17T21:19:17.436Z,6.55
2022-10-17T21:22:04.297Z,6.55
2022-10-17T21:24:51.299Z,6.00
2022-10-17T21:27:31.682Z,6.90
2022-10-17T21:30:19.282Z,5.50
2022-10-17T21:32:59.698Z,6.50
2022-10-17T21:35:46.300Z,5.97
2022-10-17T21:38:26.627Z,6.88
2022-10-17T21:41:13.275Z,5.90
2022-10-17T21:44:26.974Z,6.47
2022-10-17T21:47:13.289Z,5.75
2022-10-17T21:50:00.286Z,6.18
2022-10-17T21:52:40.336Z,6.05
2022-10-17T21:55:27.272Z,5.65
2022-10-17T21:58:07.369Z,6.38
2022-10-17T22:00:54.236Z,6.18
2022-10-17T22:03:44.135Z,6.07
2022-10-17T22:06:40.632Z,5.68
2022-10-17T22:09:23.313Z,6.53
2022-10-17T22:12:10.214Z,4.93
2022-10-17T22:14:57.234Z,5.75
2022-10-17T22:17:37.557Z,6.00
2022-10-17T22:20:24.190Z,6.35
2022-10-17T22:23:04.606Z,5.55
2022-10-17T22:25:51.206Z,6.00
2022-10-17T22:28:38.242Z,5.93
2022-10-17T22:31:18.277Z,6.60
2022-10-17T22:34:05.600Z,6.18
2022-10-17T22:36:45.387Z,5.40
2022-10-17T22:39:32.170Z,5.55
2022-10-17T22:42:12.441Z,6.28
2022-10-17T22:44:59.160Z,4.45
2022-10-17T22:47:39.265Z,4.80
2022-10-17T22:50:28.246Z,4.40
2022-10-17T22:53:08.349Z,5.28
2022-10-17T22:56:03.160Z,4.45
2022-10-17T23:01:31.179Z,4.28
2022-10-17T23:04:11.219Z,3.85
2022-10-17T23:06:58.150Z,3.75
2022-10-17T23:09:38.289Z,3.97
2022-10-17T23:12:25.144Z,3.72
2022-10-17T23:15:05.231Z,3.67
2022-10-17T23:17:52.127Z,4.05
2022-10-17T23:20:32.214Z,4.10
2022-10-17T23:23:19.147Z,2.95
2022-10-17T23:25:59.218Z,4.32
2022-10-17T23:28:47.191Z,3.20
2022-10-17T23:31:28.238Z,3.58
2022-10-17T23:34:15.097Z,3.42
2022-10-17T23:36:55.235Z,4.07
2022-10-17T23:39:42.115Z,3.47
2022-10-17T23:42:29.122Z,4.15
2022-10-17T23:45:10.002Z,4.15
2022-10-17T23:47:57.138Z,3.90
2022-10-17T23:50:37.490Z,3.45
2022-10-17T23:53:24.120Z,3.78
2022-10-17T23:56:12.088Z,3.97
2022-10-17T23:58:52.501Z,3.85
